Time;durP1;ratioP1;P1;durP2;ratioP2;P2;SDS_P1;SDS_P2;PMS_P1;PMS_P2;Temp;Humidity;BMP_temperature;BMP_pressure;BME280_temperature;BME280_humidity;BME280_pressure;Samples;Min_cycle;Max_cycle;Signal;HPM_P1;HPM_P2
2024/02/25 00:00:36;;;;;;;19.40;4.10;;;9.90;91.80;;;;;;5047378;28;20048;-50
2024/02/25 00:03:02;;;;;;;17.65;4.25;;;9.90;91.80;;;;;;5048677;28;20030;-50
2024/02/25 00:05:29;;;;;;;23.65;4.50;;;9.90;91.90;;;;;;5030706;28;20484;-51
2024/02/25 00:07:55;;;;;;;25.42;4.47;;;9.90;91.90;;;;;;5031111;28;20128;-51
2024/02/25 00:10:20;;;;;;;18.35;4.20;;;9.90;91.90;;;;;;5030839;28;20396;-50
2024/02/25 00:12:46;;;;;;;19.77;4.57;;;9.80;91.90;;;;;;5047270;28;20108;-51
2024/02/25 00:15:11;;;;;;;22.85;4.97;;;9.80;91.90;;;;;;5047356;28;20026;-50
2024/02/25 00:17:37;;;;;;;16.88;4.22;;;9.80;91.90;;;;;;5048358;28;20037;-51
2024/02/25 00:20:04;;;;;;;13.75;3.92;;;9.80;91.90;;;;;;5047454;28;20022;-50
2024/02/25 00:22:29;;;;;;;13.85;3.67;;;9.80;91.90;;;;;;5047130;28;20030;-51
2024/02/25 00:24:55;;;;;;;19.08;3.90;;;9.80;91.90;;;;;;5048167;28;20075;-50
2024/02/25 00:27:20;;;;;;;15.70;4.30;;;9.80;91.90;;;;;;5048121;28;20124;-50
2024/02/25 00:29:46;;;;;;;15.73;4.28;;;9.70;91.90;;;;;;5046948;28;20551;-50
2024/02/25 00:32:12;;;;;;;14.68;3.83;;;9.70;91.90;;;;;;5048179;28;20025;-50
2024/02/25 00:34:37;;;;;;;12.20;3.65;;;9.70;91.90;;;;;;5047989;28;20085;-50
2024/02/25 00:37:03;;;;;;;17.55;4.13;;;9.70;91.90;;;;;;5046505;28;20030;-48
2024/02/25 00:39:28;;;;;;;13.80;3.95;;;9.70;91.90;;;;;;5046875;28;20034;-51
2024/02/25 00:41:56;;;;;;;16.85;3.60;;;9.70;91.90;;;;;;5048015;28;20027;-51
2024/02/25 00:44:21;;;;;;;17.08;3.80;;;9.70;91.90;;;;;;5046498;28;20028;-50
2024/02/25 00:46:47;;;;;;;9.88;3.33;;;9.60;91.90;;;;;;5029922;28;20089;-50
2024/02/25 00:49:13;;;;;;;15.60;3.25;;;9.60;91.90;;;;;;5046625;28;20029;-52
2024/02/25 00:51:39;;;;;;;14.95;3.45;;;9.60;91.90;;;;;;5046613;28;20108;-50
2024/02/25 00:54:05;;;;;;;16.60;3.83;;;9.60;91.90;;;;;;5029998;28;20396;-51
2024/02/25 00:56:31;;;;;;;15.38;3.28;;;9.50;91.90;;;;;;5046786;28;20021;-50
2024/02/25 00:58:56;;;;;;;13.77;3.15;;;9.50;91.80;;;;;;5046686;28;20048;-50
2024/02/25 01:01:22;;;;;;;13.57;3.22;;;9.50;91.90;;;;;;5046633;28;20052;-50
2024/02/25 01:03:47;;;;;;;13.18;3.75;;;9.50;92.00;;;;;;5046216;28;20056;-51
2024/02/25 01:06:13;;;;;;;9.98;2.92;;;9.50;92.00;;;;;;5046453;28;20018;-51
2024/02/25 01:08:39;;;;;;;13.35;3.75;;;9.40;92.00;;;;;;5047175;28;20033;-51
2024/02/25 01:11:08;;;;;;;12.43;3.30;;;9.40;92.00;;;;;;5046240;28;20025;-51
2024/02/25 01:13:34;;;;;;;17.33;3.60;;;9.40;91.90;;;;;;5047462;28;20053;-51
2024/02/25 01:16:03;;;;;;;9.27;3.03;;;9.40;92.00;;;;;;5029745;28;20033;-51
2024/02/25 01:18:30;;;;;;;14.07;3.35;;;9.40;91.90;;;;;;5045989;28;20033;-50
2024/02/25 01:20:56;;;;;;;14.20;3.35;;;9.40;91.90;;;;;;5045978;28;20040;-50
2024/02/25 01:23:21;;;;;;;9.10;2.88;;;9.40;92.00;;;;;;5029456;28;20030;-51
2024/02/25 01:25:47;;;;;;;12.18;3.10;;;9.40;92.00;;;;;;5045974;28;20037;-51
2024/02/25 01:28:12;;;;;;;8.93;3.00;;;9.30;91.90;;;;;;5029399;28;20495;-51
2024/02/25 01:30:38;;;;;;;9.68;2.83;;;9.30;92.00;;;;;;5045793;28;20030;-50
2024/02/25 01:33:04;;;;;;;8.43;2.88;;;9.30;92.00;;;;;;5045703;28;20025;-51
2024/02/25 01:35:30;;;;;;;11.65;3.03;;;9.30;92.00;;;;;;5045759;28;20034;-50
2024/02/25 01:37:55;;;;;;;9.55;2.75;;;9.30;92.00;;;;;;5046501;28;20030;-50
2024/02/25 01:40:21;;;;;;;8.10;2.75;;;9.20;92.00;;;;;;5012786;28;20381;-51
2024/02/25 01:42:47;;;;;;;7.50;2.78;;;9.20;92.00;;;;;;5046910;28;20028;-50
2024/02/25 01:45:12;;;;;;;7.10;2.33;;;9.20;92.10;;;;;;5045572;28;20028;-51
2024/02/25 01:47:38;;;;;;;6.53;2.70;;;9.20;92.10;;;;;;5045354;28;20029;-50
2024/02/25 01:50:04;;;;;;;9.95;3.00;;;9.10;92.10;;;;;;5028978;28;20028;-50
2024/02/25 01:52:30;;;;;;;10.27;3.22;;;9.10;92.10;;;;;;5028905;28;20033;-50
2024/02/25 01:54:55;;;;;;;10.38;3.22;;;9.10;92.10;;;;;;5028830;28;20059;-50
2024/02/25 01:57:21;;;;;;;9.57;2.88;;;9.10;92.10;;;;;;5028594;28;20057;-50
2024/02/25 01:59:46;;;;;;;9.10;2.65;;;9.10;92.10;;;;;;5028669;28;20021;-50
2024/02/25 02:02:15;;;;;;;9.35;2.50;;;9.10;92.10;;;;;;5045173;28;20052;-50
2024/02/25 02:04:41;;;;;;;6.90;2.53;;;9.00;92.10;;;;;;5045253;28;20105;-50
2024/02/25 02:07:10;;;;;;;12.70;2.83;;;9.00;92.10;;;;;;5028716;28;20033;-50
2024/02/25 02:09:36;;;;;;;6.53;2.42;;;9.00;92.10;;;;;;5046579;28;20026;-51
2024/02/25 02:12:02;;;;;;;7.65;2.80;;;9.00;92.10;;;;;;5045281;28;20053;-51
2024/02/25 02:14:28;;;;;;;7.03;2.50;;;8.90;92.40;;;;;;5045784;28;20040;-50
2024/02/25 02:16:53;;;;;;;7.28;2.85;;;8.90;92.10;;;;;;5045231;28;20030;-50
2024/02/25 02:19:19;;;;;;;9.38;2.60;;;8.90;92.10;;;;;;5046021;28;20040;-51
2024/02/25 02:21:45;;;;;;;9.57;2.60;;;8.90;92.20;;;;;;5045970;28;20036;-50
2024/02/25 02:24:12;;;;;;;7.00;2.53;;;8.80;92.10;;;;;;5044909;28;20025;-51
2024/02/25 02:26:37;;;;;;;8.13;2.75;;;8.80;92.20;;;;;;5028515;28;20026;-51
2024/02/25 02:29:03;;;;;;;9.60;2.13;;;8.80;92.20;;;;;;5045047;28;20063;-51
2024/02/25 02:31:28;;;;;;;9.57;2.28;;;8.80;92.50;;;;;;5046193;28;20214;-51
2024/02/25 02:33:54;;;;;;;9.43;2.28;;;8.70;92.20;;;;;;5045153;28;20034;-50
2024/02/25 02:36:19;;;;;;;6.55;2.83;;;8.70;92.30;;;;;;5044667;28;20025;-51
2024/02/25 02:38:45;;;;;;;9.10;2.50;;;8.70;92.30;;;;;;5044880;28;20379;-50
2024/02/25 02:41:11;;;;;;;6.47;2.35;;;8.70;92.30;;;;;;5046096;28;20033;-50
2024/02/25 02:43:36;;;;;;;6.43;2.50;;;8.70;92.30;;;;;;5028373;28;20032;-51
2024/02/25 02:46:03;;;;;;;7.68;2.42;;;8.70;92.30;;;;;;5044876;28;20435;-50
2024/02/25 02:48:28;;;;;;;5.97;2.40;;;8.60;92.30;;;;;;5045452;28;20029;-50
2024/02/25 02:50:55;;;;;;;12.68;2.70;;;8.60;92.30;;;;;;5045046;28;20072;-51
2024/02/25 02:53:21;;;;;;;10.10;2.45;;;8.60;92.40;;;;;;5028681;28;20025;-51
2024/02/25 02:55:46;;;;;;;8.55;2.30;;;8.60;92.40;;;;;;5044720;28;20105;-50
2024/02/25 02:58:12;;;;;;;7.20;2.35;;;8.60;92.40;;;;;;5028120;28;20037;-50
2024/02/25 03:00:38;;;;;;;7.25;2.33;;;8.60;92.40;;;;;;5044627;28;20030;-51
2024/02/25 03:03:03;;;;;;;6.63;2.05;;;8.60;92.40;;;;;;5029448;28;20017;-50
2024/02/25 03:05:29;;;;;;;5.88;2.47;;;8.50;92.40;;;;;;5048608;28;20116;-50
2024/02/25 03:07:55;;;;;;;6.28;2.42;;;8.60;92.40;;;;;;5049803;28;20056;-50
2024/02/25 03:10:20;;;;;;;5.90;2.30;;;8.50;92.40;;;;;;5048444;28;20033;-51
2024/02/25 03:12:46;;;;;;;6.90;2.17;;;8.50;92.40;;;;;;5048284;28;20025;-50
2024/02/25 03:15:12;;;;;;;3.63;2.00;;;8.50;92.40;;;;;;5048437;28;20064;-50
2024/02/25 03:17:42;;;;;;;3.95;2.22;;;8.40;92.40;;;;;;5031920;28;20026;-50
2024/02/25 03:20:08;;;;;;;7.35;2.15;;;8.50;92.40;;;;;;5048375;28;20029;-51
2024/02/25 03:22:34;;;;;;;4.47;2.28;;;8.40;92.40;;;;;;5048899;28;20022;-51
2024/02/25 03:25:00;;;;;;;7.47;1.90;;;8.40;92.50;;;;;;5048289;28;20030;-51
2024/02/25 03:27:25;;;;;;;8.75;2.30;;;8.40;92.50;;;;;;5048168;28;20072;-51
2024/02/25 03:29:51;;;;;;;5.25;2.13;;;8.40;92.50;;;;;;5031669;28;20029;-50
2024/02/25 03:32:17;;;;;;;4.85;1.95;;;8.30;92.50;;;;;;5031626;28;20033;-50
2024/02/25 03:34:42;;;;;;;4.78;2.13;;;8.30;92.50;;;;;;5049239;28;20033;-50
2024/02/25 03:37:08;;;;;;;2.92;1.80;;;8.30;92.60;;;;;;5047788;28;20032;-50
2024/02/25 03:39:33;;;;;;;5.45;2.03;;;8.30;92.60;;;;;;5031348;28;20040;-50
2024/02/25 03:41:59;;;;;;;2.90;1.48;;;8.30;92.60;;;;;;5049044;28;20081;-50
2024/02/25 03:44:26;;;;;;;4.22;1.90;;;8.30;92.60;;;;;;5031397;28;20029;-50
2024/02/25 03:46:51;;;;;;;3.63;1.77;;;8.30;92.60;;;;;;5047784;28;20033;-50
2024/02/25 03:49:17;;;;;;;3.15;1.80;;;8.20;92.50;;;;;;5047564;28;20044;-51
2024/02/25 03:51:44;;;;;;;3.85;1.88;;;8.20;92.60;;;;;;5049211;28;20088;-50
2024/02/25 03:54:09;;;;;;;5.30;1.92;;;8.20;92.60;;;;;;5031482;28;20060;-50
2024/02/25 03:56:35;;;;;;;3.92;1.63;;;8.20;92.90;;;;;;5049281;28;20030;-51
2024/02/25 03:59:00;;;;;;;5.18;1.70;;;8.20;92.60;;;;;;5047627;28;20041;-51
2024/02/25 04:01:26;;;;;;;5.68;2.03;;;8.20;92.60;;;;;;5047462;28;20025;-51
2024/02/25 04:03:52;;;;;;;4.43;1.65;;;8.20;92.60;;;;;;5047483;28;20030;-50
2024/02/25 04:06:17;;;;;;;4.28;1.83;;;8.10;92.60;;;;;;5030885;28;20057;-51
2024/02/25 04:08:43;;;;;;;4.93;2.05;;;8.10;92.60;;;;;;5030922;28;20041;-50
2024/02/25 04:11:08;;;;;;;4.63;1.52;;;8.10;92.60;;;;;;5047470;28;20029;-51
2024/02/25 04:13:34;;;;;;;3.08;1.77;;;8.10;92.70;;;;;;5047256;28;20423;-51
2024/02/25 04:15:59;;;;;;;4.22;1.75;;;8.10;92.70;;;;;;5047348;28;20112;-50
2024/02/25 04:18:25;;;;;;;3.83;1.65;;;8.00;92.60;;;;;;5046964;28;20025;-50
2024/02/25 04:20:50;;;;;;;3.92;1.65;;;8.00;92.70;;;;;;5030772;28;20022;-51
2024/02/25 04:23:16;;;;;;;3.47;1.90;;;8.00;92.70;;;;;;5047059;28;20024;-50
2024/02/25 04:25:42;;;;;;;3.83;1.83;;;8.00;92.70;;;;;;5030415;28;20391;-50
2024/02/25 04:28:07;;;;;;;8.07;1.95;;;7.90;92.70;;;;;;5048413;28;20021;-50
2024/02/25 04:30:33;;;;;;;3.58;1.75;;;7.90;92.70;;;;;;5046899;28;20095;-51
2024/02/25 04:32:59;;;;;;;5.57;2.20;;;7.90;92.80;;;;;;5048325;28;20051;-50
2024/02/25 04:35:28;;;;;;;3.38;1.73;;;7.90;92.80;;;;;;5046856;28;20029;-51
2024/02/25 04:37:53;;;;;;;4.60;1.52;;;7.90;92.80;;;;;;5047766;28;20033;-50
2024/02/25 04:40:19;;;;;;;5.35;2.13;;;7.80;92.80;;;;;;5046579;28;20040;-51
2024/02/25 04:42:45;;;;;;;3.85;1.80;;;7.90;92.80;;;;;;5048198;28;20040;-51
2024/02/25 04:45:11;;;;;;;5.93;2.08;;;7.80;92.80;;;;;;5047893;28;20071;-50
2024/02/25 04:47:36;;;;;;;4.85;2.00;;;7.80;92.80;;;;;;5047990;28;20049;-50
2024/02/25 04:50:05;;;;;;;5.72;1.58;;;7.80;92.80;;;;;;5046364;28;20025;-50
2024/02/25 04:52:31;;;;;;;3.38;1.65;;;7.80;92.80;;;;;;5014290;28;20034;-51
2024/02/25 04:54:56;;;;;;;4.18;1.40;;;7.80;92.90;;;;;;5030197;28;20124;-50
2024/02/25 04:57:22;;;;;;;5.10;2.10;;;7.80;92.90;;;;;;5046481;28;20358;-51
2024/02/25 04:59:48;;;;;;;4.43;1.60;;;7.70;92.80;;;;;;5029582;28;20030;-50
2024/02/25 05:02:13;;;;;;;2.78;1.70;;;7.70;92.80;;;;;;5046236;28;20048;-50
2024/02/25 05:04:42;;;;;;;6.03;1.90;;;7.70;92.90;;;;;;5046441;28;20036;-50
2024/02/25 05:07:08;;;;;;;3.03;1.50;;;7.70;92.80;;;;;;5046219;28;20103;-50
2024/02/25 05:09:34;;;;;;;3.45;1.60;;;7.70;92.90;;;;;;5047565;28;20054;-50
2024/02/25 05:11:59;;;;;;;3.50;1.50;;;7.70;92.90;;;;;;5046124;28;20057;-50
2024/02/25 05:14:25;;;;;;;3.95;1.60;;;7.70;92.90;;;;;;5029893;28;20033;-51
2024/02/25 05:16:51;;;;;;;4.05;1.92;;;7.60;92.90;;;;;;5029608;28;20040;-51
2024/02/25 05:19:17;;;;;;;4.47;1.63;;;7.60;93.00;;;;;;5046021;28;20034;-50
2024/02/25 05:21:44;;;;;;;3.22;1.65;;;7.60;93.00;;;;;;5046105;28;20025;-50
2024/02/25 05:24:10;;;;;;;2.90;1.50;;;7.60;93.00;;;;;;5045957;28;20060;-50
2024/02/25 05:26:35;;;;;;;4.00;1.65;;;7.60;92.90;;;;;;5028587;28;20017;-50
2024/02/25 05:29:01;;;;;;;3.88;1.77;;;7.60;93.00;;;;;;5045754;28;20033;-50
2024/02/25 05:31:27;;;;;;;4.50;1.98;;;7.60;93.00;;;;;;5029181;28;20504;-51
2024/02/25 05:33:52;;;;;;;3.08;1.80;;;7.60;93.00;;;;;;5029441;28;20038;-50
2024/02/25 05:36:22;;;;;;;4.45;1.88;;;7.50;93.00;;;;;;5046819;28;20472;-50
2024/02/25 05:38:50;;;;;;;5.20;1.77;;;7.50;93.00;;;;;;5029839;28;20044;-51
2024/02/25 05:41:16;;;;;;;5.88;2.03;;;7.50;93.00;;;;;;5045768;28;20022;-51
2024/02/25 05:43:44;;;;;;;5.10;1.80;;;7.50;93.00;;;;;;5045656;28;20554;-50
2024/02/25 05:46:10;;;;;;;2.45;1.42;;;7.50;93.00;;;;;;5045665;28;20026;-50
2024/02/25 05:48:36;;;;;;;4.15;2.05;;;7.50;93.00;;;;;;5045442;28;20021;-51
2024/02/25 05:51:02;;;;;;;4.53;2.05;;;7.50;93.00;;;;;;5046944;28;20033;-50
2024/02/25 05:53:28;;;;;;;6.07;1.95;;;7.50;93.00;;;;;;5045553;28;20048;-50
2024/02/25 05:55:53;;;;;;;2.72;1.55;;;7.40;93.00;;;;;;5046863;28;20042;-51
2024/02/25 05:58:19;;;;;;;4.20;2.20;;;7.40;93.00;;;;;;5028725;28;20080;-50
2024/02/25 06:00:45;;;;;;;2.88;1.70;;;7.40;93.00;;;;;;5045431;28;20029;-50
2024/02/25 06:03:10;;;;;;;4.25;1.88;;;7.40;93.00;;;;;;5045298;28;20476;-51
2024/02/25 06:05:36;;;;;;;2.80;1.52;;;7.30;93.00;;;;;;5045349;28;20037;-50
2024/02/25 06:08:01;;;;;;;5.05;1.85;;;7.40;93.10;;;;;;5046658;28;20029;-50
2024/02/25 06:10:27;;;;;;;4.35;1.75;;;7.30;93.40;;;;;;5045057;28;20044;-50
2024/02/25 06:12:52;;;;;;;6.43;2.28;;;7.40;93.10;;;;;;5028689;28;20048;-50
2024/02/25 06:15:18;;;;;;;2.83;1.50;;;7.30;93.10;;;;;;5045318;28;20059;-50
2024/02/25 06:17:44;;;;;;;4.13;1.90;;;7.30;93.10;;;;;;5044984;28;20031;-50
2024/02/25 06:20:10;;;;;;;2.88;1.55;;;7.30;93.10;;;;;;5045176;28;20030;-51
2024/02/25 06:22:40;;;;;;;2.60;1.92;;;7.30;93.10;;;;;;5028675;28;20073;-50
2024/02/25 06:25:06;;;;;;;3.28;1.63;;;7.30;93.10;;;;;;5028504;28;20029;-51
2024/02/25 06:27:32;;;;;;;3.25;1.70;;;7.20;93.10;;;;;;5028656;28;20021;-50
2024/02/25 06:29:57;;;;;;;5.20;1.65;;;7.30;93.10;;;;;;5028802;28;20040;-51
2024/02/25 06:32:23;;;;;;;3.92;1.80;;;7.20;93.10;;;;;;5045231;28;20022;-50
2024/02/25 06:34:48;;;;;;;2.42;1.70;;;7.20;93.10;;;;;;5046379;28;20500;-51
2024/02/25 06:37:14;;;;;;;6.03;1.50;;;7.20;93.10;;;;;;5045854;28;20033;-51
2024/02/25 06:39:40;;;;;;;3.17;1.73;;;7.20;93.10;;;;;;5048972;28;20041;-50
2024/02/25 06:42:06;;;;;;;2.13;1.23;;;7.20;93.10;;;;;;5048531;28;20030;-51
2024/02/25 06:44:32;;;;;;;3.95;1.38;;;7.20;93.10;;;;;;5050656;28;20025;-50
2024/02/25 06:46:57;;;;;;;3.88;1.50;;;7.20;93.10;;;;;;5050286;28;20021;-50
2024/02/25 06:49:23;;;;;;;2.35;1.60;;;7.20;93.10;;;;;;5016008;28;20037;-50
2024/02/25 06:51:48;;;;;;;3.00;1.52;;;7.10;93.10;;;;;;5049633;28;20029;-50
2024/02/25 06:54:14;;;;;;;3.28;1.45;;;7.10;93.10;;;;;;5049225;28;20460;-50
2024/02/25 06:56:40;;;;;;;1.95;1.40;;;7.10;93.10;;;;;;5032580;28;20055;-50
2024/02/25 06:59:05;;;;;;;3.17;1.58;;;7.10;93.20;;;;;;5032254;28;20080;-50
2024/02/25 07:01:31;;;;;;;2.20;1.38;;;7.10;93.20;;;;;;5048552;28;20453;-51
2024/02/25 07:03:56;;;;;;;2.10;1.40;;;7.10;93.20;;;;;;5048522;28;20025;-50
2024/02/25 07:06:22;;;;;;;2.10;1.45;;;7.10;93.20;;;;;;5048571;28;20461;-51
2024/02/25 07:08:48;;;;;;;2.28;1.70;;;7.10;93.20;;;;;;5049759;28;20025;-51
2024/02/25 07:11:20;;;;;;;2.65;1.65;;;7.10;93.20;;;;;;5031827;28;20053;-50
2024/02/25 07:13:46;;;;;;;2.00;1.60;;;7.10;93.20;;;;;;5048597;28;20041;-50
2024/02/25 07:16:12;;;;;;;3.72;1.88;;;7.10;93.20;;;;;;5048040;28;20025;-50
2024/02/25 07:18:37;;;;;;;3.17;1.63;;;7.10;93.20;;;;;;5015549;28;20033;-50
2024/02/25 07:21:03;;;;;;;1.77;1.40;;;7.10;93.20;;;;;;5049437;28;20040;-50
2024/02/25 07:23:29;;;;;;;2.95;1.77;;;7.10;93.20;;;;;;5031991;28;20021;-50
2024/02/25 07:25:55;;;;;;;2.42;1.50;;;7.10;93.20;;;;;;5049565;28;20021;-50
2024/02/25 07:28:20;;;;;;;4.47;1.65;;;7.10;93.50;;;;;;5048374;28;20029;-50
2024/02/25 07:30:46;;;;;;;2.03;1.50;;;7.00;93.20;;;;;;5049451;28;20040;-51
2024/02/25 07:33:11;;;;;;;2.60;1.55;;;7.10;93.50;;;;;;5031471;28;20498;-50
2024/02/25 07:35:37;;;;;;;2.25;1.33;;;7.00;93.20;;;;;;5031477;28;20116;-51
2024/02/25 07:38:02;;;;;;;3.30;1.48;;;7.00;93.30;;;;;;5048775;28;20060;-50
2024/02/25 07:40:28;;;;;;;1.83;1.30;;;7.00;93.30;;;;;;5049159;28;20037;-50
2024/02/25 07:42:54;;;;;;;3.92;1.70;;;7.00;93.30;;;;;;5047787;28;20033;-50
2024/02/25 07:45:19;;;;;;;3.67;1.60;;;7.00;93.30;;;;;;5031348;28;20125;-50
2024/02/25 07:47:45;;;;;;;3.47;1.63;;;7.00;93.30;;;;;;5031184;28;20369;-50
2024/02/25 07:50:11;;;;;;;1.75;1.35;;;7.10;93.30;;;;;;5047178;28;20030;-50
2024/02/25 07:52:36;;;;;;;2.03;1.23;;;7.00;93.20;;;;;;5047673;28;20060;-50
2024/02/25 07:55:02;;;;;;;2.75;1.52;;;7.10;93.30;;;;;;5047704;28;20391;-50
2024/02/25 07:57:28;;;;;;;2.28;1.50;;;7.10;93.30;;;;;;5031082;28;20030;-50
2024/02/25 07:59:54;;;;;;;2.33;1.73;;;7.10;93.20;;;;;;5048841;28;20036;-50
2024/02/25 08:02:19;;;;;;;2.70;1.60;;;7.10;93.30;;;;;;5047531;28;20030;-50
2024/02/25 08:04:45;;;;;;;1.98;1.45;;;7.10;93.30;;;;;;5048662;28;20025;-50
2024/02/25 08:07:10;;;;;;;3.72;1.50;;;7.10;93.30;;;;;;5030866;28;20527;-50
2024/02/25 08:09:36;;;;;;;2.38;1.45;;;7.10;93.20;;;;;;5047218;28;20132;-50
2024/02/25 08:12:02;;;;;;;2.33;1.63;;;7.10;93.20;;;;;;5047349;28;20063;-50
2024/02/25 08:14:28;;;;;;;2.20;1.55;;;7.10;93.20;;;;;;5030839;28;20055;-50
2024/02/25 08:16:54;;;;;;;1.98;1.50;;;7.20;93.20;;;;;;5048561;28;20053;-51
2024/02/25 08:19:20;;;;;;;2.22;1.35;;;7.20;93.20;;;;;;5031116;28;20113;-50
2024/02/25 08:21:45;;;;;;;2.28;1.40;;;7.20;93.10;;;;;;5047170;28;20034;-51
2024/02/25 08:24:11;;;;;;;2.58;1.40;;;7.20;93.10;;;;;;5047691;28;20033;-51
2024/02/25 08:26:38;;;;;;;3.95;1.33;;;7.20;93.10;;;;;;5046891;28;20575;-50
2024/02/25 08:29:04;;;;;;;3.05;1.60;;;7.20;93.10;;;;;;5046968;28;20033;-50
2024/02/25 08:31:30;;;;;;;2.10;1.55;;;7.20;93.10;;;;;;5042370;28;20029;-51
2024/02/25 08:33:55;;;;;;;2.15;1.65;;;7.20;93.20;;;;;;5054392;28;20109;-51
2024/02/25 08:36:21;;;;;;;2.10;1.40;;;7.20;93.20;;;;;;5039211;28;20029;-50
2024/02/25 08:38:48;;;;;;;3.17;1.58;;;7.20;93.20;;;;;;5046548;28;20092;-51
2024/02/25 08:41:13;;;;;;;2.58;1.52;;;7.20;93.20;;;;;;5048040;28;20100;-50
2024/02/25 08:43:39;;;;;;;2.05;1.67;;;7.30;93.20;;;;;;5028501;28;20026;-51
2024/02/25 08:46:05;;;;;;;3.90;1.83;;;7.30;93.20;;;;;;5046371;28;20045;-50
2024/02/25 08:48:30;;;;;;;3.83;1.45;;;7.30;93.20;;;;;;5029982;28;20057;-50
2024/02/25 08:50:56;;;;;;;3.17;1.55;;;7.30;93.20;;;;;;5026832;28;20026;-50
2024/02/25 08:53:21;;;;;;;1.75;1.27;;;7.30;93.20;;;;;;5029932;28;20026;-50
2024/02/25 08:55:47;;;;;;;3.65;1.40;;;7.40;93.20;;;;;;5046626;28;20029;-50
2024/02/25 08:58:13;;;;;;;1.38;1.15;;;7.40;93.20;;;;;;5046531;28;20029;-50
2024/02/25 09:00:40;;;;;;;1.83;1.30;;;7.40;93.10;;;;;;5043118;28;20068;-50
2024/02/25 09:03:06;;;;;;;2.30;1.33;;;7.40;93.20;;;;;;5044800;28;20105;-51
2024/02/25 09:05:31;;;;;;;2.88;1.70;;;7.40;93.20;;;;;;5045941;28;20030;-50
2024/02/25 09:07:59;;;;;;;1.67;1.40;;;7.40;93.30;;;;;;5044557;28;20026;-50
2024/02/25 09:10:24;;;;;;;2.80;1.42;;;7.50;93.30;;;;;;5038805;28;20033;-50
2024/02/25 09:12:50;;;;;;;3.42;1.55;;;7.50;93.40;;;;;;5046318;28;20052;-50
2024/02/25 09:15:16;;;;;;;3.03;1.30;;;7.50;93.50;;;;;;5011253;28;20029;-51
2024/02/25 09:17:43;;;;;;;2.17;1.27;;;7.50;93.50;;;;;;5040596;28;20752;-50
2024/02/25 09:20:09;;;;;;;2.67;1.30;;;7.50;93.50;;;;;;5041480;28;20044;-50
2024/02/25 09:22:35;;;;;;;16.48;2.17;;;7.50;93.60;;;;;;5037719;28;20028;-51
2024/02/25 09:25:00;;;;;;;4.63;1.67;;;7.50;93.60;;;;;;5040032;28;20025;-50
2024/02/25 09:27:26;;;;;;;12.38;2.05;;;7.60;93.70;;;;;;5044950;28;20395;-51
2024/02/25 09:29:52;;;;;;;11.90;2.10;;;7.60;93.70;;;;;;5042361;28;20037;-51
2024/02/25 09:32:17;;;;;;;18.42;2.17;;;7.60;93.70;;;;;;5026748;28;20021;-50
2024/02/25 09:34:44;;;;;;;20.95;3.15;;;7.60;93.70;;;;;;5044407;28;20033;-50
2024/02/25 09:37:10;;;;;;;36.42;3.65;;;7.70;93.70;;;;;;5039331;28;20032;-50
2024/02/25 09:39:35;;;;;;;23.13;3.15;;;7.70;93.80;;;;;;5029283;28;20025;-50
2024/02/25 09:42:05;;;;;;;38.15;4.72;;;7.70;93.80;;;;;;5052612;28;20085;-51
2024/02/25 09:44:31;;;;;;;31.38;4.10;;;7.70;93.90;;;;;;5023740;28;20025;-50
2024/02/25 09:46:56;;;;;;;19.38;3.45;;;7.70;93.90;;;;;;5024054;28;20530;-50
2024/02/25 09:49:24;;;;;;;28.63;3.65;;;7.80;94.10;;;;;;5042183;28;20042;-51
2024/02/25 09:51:49;;;;;;;44.00;3.92;;;7.80;94.10;;;;;;5040857;28;20025;-51
2024/02/25 09:54:15;;;;;;;37.08;4.57;;;7.90;94.00;;;;;;5040093;28;20036;-51
2024/02/25 09:56:45;;;;;;;43.58;5.88;;;7.90;94.10;;;;;;5042511;28;20025;-51
2024/02/25 09:59:10;;;;;;;25.98;4.40;;;7.90;94.10;;;;;;5031368;28;20033;-51
2024/02/25 10:01:36;;;;;;;53.17;7.03;;;7.90;94.40;;;;;;5031354;28;20529;-50
2024/02/25 10:04:02;;;;;;;55.47;6.38;;;7.90;94.00;;;;;;5036310;28;20347;-50
2024/02/25 10:06:38;;;;;;;64.88;7.47;;;8.00;94.10;;;;;;5025535;28;20036;-51
2024/02/25 10:09:04;;;;;;;77.32;7.43;;;8.00;94.20;;;;;;5030091;28;20036;-50
2024/02/25 10:11:30;;;;;;;54.88;7.38;;;8.10;94.40;;;;;;5029836;28;20025;-50
2024/02/25 10:13:56;;;;;;;57.63;6.18;;;8.10;94.30;;;;;;5027274;28;20040;-50
2024/02/25 10:16:22;;;;;;;62.83;7.50;;;8.10;94.10;;;;;;5044101;28;20071;-50
2024/02/25 10:18:51;;;;;;;69.45;6.38;;;8.10;94.20;;;;;;5041598;28;20037;-50
2024/02/25 10:21:18;;;;;;;70.60;7.80;;;8.10;94.30;;;;;;5040020;28;20036;-50
2024/02/25 10:23:43;;;;;;;56.53;7.97;;;8.10;94.40;;;;;;5042016;28;20052;-51
2024/02/25 10:26:19;;;;;;;94.60;8.73;;;8.20;94.20;;;;;;5042930;28;20541;-50
2024/02/25 10:28:45;;;;;;;115.35;11.20;;;8.20;94.20;;;;;;5037906;28;20149;-50
2024/02/25 10:31:14;;;;;;;108.88;9.50;;;8.20;94.30;;;;;;5027070;28;20030;-50
2024/02/25 10:33:43;;;;;;;86.05;10.00;;;8.30;94.30;;;;;;5026865;28;20040;-50
2024/02/25 10:36:12;;;;;;;104.60;11.48;;;8.30;94.30;;;;;;5025988;28;20029;-50
2024/02/25 10:38:44;;;;;;;87.15;11.00;;;8.30;94.40;;;;;;5041663;28;20056;-50
2024/02/25 10:41:10;;;;;;;91.50;10.73;;;8.30;94.30;;;;;;5045581;28;20041;-50
2024/02/25 10:43:37;;;;;;;122.47;12.05;;;8.40;94.20;;;;;;5042655;28;20149;-50
2024/02/25 10:46:05;;;;;;;107.15;10.45;;;8.40;94.20;;;;;;5026245;28;20102;-51
2024/02/25 10:48:31;;;;;;;149.80;12.57;;;8.40;94.20;;;;;;5043471;28;20368;-50
2024/02/25 10:50:57;;;;;;;80.78;11.27;;;8.50;94.30;;;;;;5016368;28;20037;-51
2024/02/25 10:53:24;;;;;;;122.85;11.80;;;8.40;94.30;;;;;;5030810;28;20053;-51
2024/02/25 10:55:51;;;;;;;127.13;13.40;;;8.50;94.20;;;;;;5023185;28;20052;-50
2024/02/25 10:58:19;;;;;;;112.80;12.80;;;8.50;94.10;;;;;;5024410;28;20025;-50
2024/02/25 11:00:46;;;;;;;146.50;14.88;;;8.50;94.00;;;;;;5006640;28;20037;-50
2024/02/25 11:03:12;;;;;;;128.00;14.57;;;8.60;94.10;;;;;;5038342;28;20032;-50
2024/02/25 11:05:37;;;;;;;154.20;17.30;;;8.60;94.10;;;;;;5039352;28;20029;-51
2024/02/25 11:08:03;;;;;;;150.63;16.30;;;8.60;94.10;;;;;;5041177;28;20022;-51
2024/02/25 11:10:32;;;;;;;130.50;14.40;;;8.60;94.10;;;;;;5042853;28;20033;-50
2024/02/25 11:13:04;;;;;;;127.97;13.82;;;8.70;94.10;;;;;;5036993;28;20072;-51
2024/02/25 11:15:30;;;;;;;159.68;13.93;;;8.70;94.10;;;;;;5038365;28;21288;-50
2024/02/25 11:17:56;;;;;;;133.13;14.18;;;8.70;94.10;;;;;;5041992;28;20033;-50
2024/02/25 11:20:22;;;;;;;138.43;13.52;;;8.80;94.00;;;;;;5038498;28;20104;-50
2024/02/25 11:22:49;;;;;;;147.30;15.77;;;8.80;94.00;;;;;;5036282;28;20026;-50
2024/02/25 11:25:34;;;;;;;134.50;15.68;;;8.80;93.90;;;;;;5030010;28;20022;-50
2024/02/25 11:28:03;;;;;;;140.57;16.55;;;8.90;93.90;;;;;;5046587;28;20048;-50
2024/02/25 11:30:36;;;;;;;134.90;17.30;;;8.90;93.80;;;;;;5043047;28;20033;-50
2024/02/25 11:33:02;;;;;;;165.20;17.40;;;8.90;93.80;;;;;;5045233;28;20036;-50
2024/02/25 11:35:30;;;;;;;198.43;19.40;;;8.90;93.70;;;;;;5029305;28;20033;-51
2024/02/25 11:37:58;;;;;;;232.07;23.05;;;9.00;93.70;;;;;;5037888;28;20052;-51
2024/02/25 11:40:23;;;;;;;226.13;23.05;;;9.00;93.70;;;;;;5028508;28;20037;-50
2024/02/25 11:42:49;;;;;;;204.68;21.65;;;9.10;93.70;;;;;;5044098;28;20105;-50
2024/02/25 11:45:14;;;;;;;210.40;21.52;;;9.10;93.60;;;;;;5046167;28;20041;-51
2024/02/25 11:47:40;;;;;;;214.15;21.55;;;9.10;93.50;;;;;;5027350;28;20025;-51
2024/02/25 11:50:07;;;;;;;204.48;22.05;;;9.20;93.50;;;;;;5045996;28;20030;-51
2024/02/25 11:52:33;;;;;;;212.10;23.73;;;9.10;93.40;;;;;;5044699;28;20018;-50
2024/02/25 11:54:59;;;;;;;222.65;24.27;;;9.20;93.40;;;;;;5045368;28;20120;-50
2024/02/25 11:57:25;;;;;;;227.25;25.30;;;9.20;93.40;;;;;;5048391;28;20021;-51
2024/02/25 11:59:50;;;;;;;185.27;21.80;;;9.20;93.20;;;;;;5042822;28;20033;-51
2024/02/25 12:02:16;;;;;;;277.88;28.10;;;9.30;93.20;;;;;;5042645;28;20149;-50
2024/02/25 12:04:43;;;;;;;240.25;26.38;;;9.30;93.20;;;;;;5026462;28;20044;-50
2024/02/25 12:07:09;;;;;;;252.95;26.75;;;9.30;93.20;;;;;;5048717;28;20043;-51
2024/02/25 12:09:34;;;;;;;218.95;23.83;;;9.30;93.20;;;;;;5045042;28;20040;-51
2024/02/25 12:12:00;;;;;;;219.40;24.75;;;9.40;93.10;;;;;;5045764;28;20021;-50
2024/02/25 12:14:26;;;;;;;241.45;23.55;;;9.40;93.10;;;;;;5028864;28;20052;-51
2024/02/25 12:16:52;;;;;;;233.48;25.85;;;9.40;93.00;;;;;;5046735;28;20033;-50
2024/02/25 12:19:18;;;;;;;278.27;29.83;;;9.50;93.20;;;;;;5026871;28;20021;-51
2024/02/25 12:21:51;;;;;;;266.25;27.48;;;9.50;92.90;;;;;;5042231;28;20021;-50
2024/02/25 12:24:16;;;;;;;246.65;26.88;;;9.50;92.80;;;;;;5038578;28;20480;-51
2024/02/25 12:26:53;;;;;;;229.23;23.60;;;9.60;92.60;;;;;;5048716;28;20037;-51
2024/02/25 12:29:20;;;;;;;229.25;24.27;;;9.60;92.60;;;;;;5021158;28;20033;-51
2024/02/25 12:31:46;;;;;;;245.15;26.73;;;9.60;92.60;;;;;;5049627;28;20037;-51
2024/02/25 12:34:11;;;;;;;301.00;31.55;;;9.60;92.40;;;;;;5040166;28;20120;-51
2024/02/25 12:36:37;;;;;;;284.42;27.77;;;9.70;92.50;;;;;;5022966;28;20065;-51
2024/02/25 12:39:03;;;;;;;306.42;31.88;;;9.70;92.60;;;;;;5023275;28;20121;-50
2024/02/25 12:41:32;;;;;;;217.82;24.70;;;9.70;92.60;;;;;;5044751;28;20071;-51
2024/02/25 12:43:58;;;;;;;216.10;25.08;;;9.80;92.50;;;;;;5024576;28;20035;-50